createdAt,value
2022-10-19T00:01:15.152Z,71.54
2022-10-19T00:03:43.682Z,71.42
2022-10-19T00:06:12.666Z,71.37
2022-10-19T00:08:41.032Z,71.21
2022-10-19T00:11:09.456Z,71.17
2022-10-19T00:13:39.327Z,71.50
2022-10-19T00:16:11.745Z,71.60
2022-10-19T00:18:39.845Z,71.26
2022-10-19T00:21:09.118Z,71.24
2022-10-19T00:23:37.643Z,71.24
2022-10-19T00:26:06.302Z,70.88
2022-10-19T00:28:34.747Z,71.33
2022-10-19T00:33:53.032Z,71.11
2022-10-19T00:39:10.780Z,70.97
2022-10-19T00:41:39.183Z,70.33
2022-10-19T00:44:08.491Z,70.54
2022-10-19T00:46:38.386Z,70.31
2022-10-19T00:49:10.890Z,70.43
2022-10-19T00:51:41.798Z,70.20
2022-10-19T00:54:10.815Z,70.06
2022-10-19T00:56:41.299Z,70.31
2022-10-19T00:59:10.860Z,70.37
2022-10-19T01:01:40.822Z,70.63
2022-10-19T01:04:10.359Z,70.54
2022-10-19T01:06:43.551Z,70.34
2022-10-19T01:09:11.847Z,70.21
2022-10-19T01:11:44.326Z,70.27
2022-10-19T01:14:23.049Z,70.26
2022-10-19T01:16:55.289Z,70.21
2022-10-19T01:19:46.958Z,69.94
2022-10-19T01:22:23.319Z,69.87
2022-10-19T01:24:59.141Z,69.92
2022-10-19T01:27:46.544Z,69.74
2022-10-19T01:30:17.798Z,69.71
2022-10-19T01:32:53.749Z,69.80
2022-10-19T01:35:26.254Z,69.84
2022-10-19T01:37:59.650Z,69.78
2022-10-19T01:40:30.237Z,69.86
2022-10-19T01:43:02.202Z,69.83
2022-10-19T01:45:35.273Z,69.88
2022-10-19T01:48:04.917Z,70.05
2022-10-19T01:50:35.668Z,70.32
2022-10-19T01:53:05.624Z,70.27
2022-10-19T01:55:35.026Z,69.94
2022-10-19T01:58:08.263Z,69.89
2022-10-19T02:00:40.721Z,70.02
2022-10-19T02:03:10.639Z,69.95
2022-10-19T02:05:40.678Z,69.79
2022-10-19T02:08:12.188Z,69.85
2022-10-19T02:10:41.449Z,69.78
2022-10-19T02:13:09.473Z,69.85
2022-10-19T02:16:00.932Z,70.19
2022-10-19T02:18:32.837Z,69.87
2022-10-19T02:21:03.271Z,70.08
2022-10-19T02:23:31.280Z,70.10
2022-10-19T02:26:00.004Z,70.12
2022-10-19T02:28:29.320Z,70.15
2022-10-19T02:30:59.640Z,70.39
2022-10-19T02:33:28.191Z,70.36
2022-10-19T02:35:56.700Z,70.29
2022-10-19T02:38:31.686Z,70.37
2022-10-19T02:41:05.923Z,70.53
2022-10-19T02:43:35.551Z,70.37
2022-10-19T02:46:07.461Z,70.45
2022-10-19T02:48:37.823Z,70.31
2022-10-19T02:51:06.112Z,70.35
2022-10-19T02:53:34.209Z,70.24
2022-10-19T02:56:02.200Z,70.37
2022-10-19T02:58:30.326Z,70.30
2022-10-19T03:00:58.343Z,70.44
2022-10-19T03:03:28.152Z,70.44
2022-10-19T03:05:56.804Z,70.34
2022-10-19T03:08:24.859Z,70.36
2022-10-19T03:10:53.042Z,70.61
2022-10-19T03:13:21.211Z,70.48
2022-10-19T03:15:49.664Z,70.56
2022-10-19T03:18:17.762Z,70.38
2022-10-19T03:20:47.364Z,70.43
2022-10-19T03:23:15.371Z,70.45
2022-10-19T03:25:43.466Z,70.40
2022-10-19T03:28:11.492Z,70.27
2022-10-19T03:30:39.493Z,70.12
2022-10-19T03:33:07.404Z,70.20
2022-10-19T03:35:35.319Z,70.15
2022-10-19T03:38:05.047Z,70.19
2022-10-19T03:40:33.229Z,70.53
2022-10-19T03:43:01.202Z,70.44
2022-10-19T03:45:29.416Z,70.74
2022-10-19T03:47:57.948Z,70.49
2022-10-19T03:50:26.156Z,70.33
2022-10-19T03:52:54.442Z,70.17
2022-10-19T03:55:24.069Z,70.16
2022-10-19T03:57:54.092Z,70.06
2022-10-19T04:00:22.077Z,69.93
2022-10-19T04:02:50.195Z,69.86
2022-10-19T04:05:18.978Z,69.57
2022-10-19T04:07:47.004Z,69.79
2022-10-19T04:10:15.443Z,69.64
2022-10-19T04:12:45.158Z,69.76
2022-10-19T04:15:13.157Z,69.58
2022-10-19T04:17:42.045Z,69.85
2022-10-19T04:20:11.512Z,69.74
2022-10-19T04:22:39.816Z,69.72
2022-10-19T04:25:09.566Z,69.71
2022-10-19T04:27:37.645Z,69.71
2022-10-19T04:30:08.268Z,69.69
2022-10-19T04:32:36.614Z,69.72
2022-10-19T04:35:04.816Z,69.76
2022-10-19T04:37:32.962Z,69.71
2022-10-19T04:40:01.617Z,69.60
2022-10-19T04:42:30.988Z,69.50
2022-10-19T04:44:59.020Z,69.60
2022-10-19T04:47:30.189Z,69.46
2022-10-19T04:49:58.369Z,69.56
2022-10-19T04:52:26.931Z,69.44
2022-10-19T04:54:55.201Z,69.53
2022-10-19T04:57:23.349Z,69.53
2022-10-19T04:59:51.571Z,69.40
2022-10-19T05:02:20.202Z,69.47
2022-10-19T05:04:51.498Z,69.32
2022-10-19T05:07:19.615Z,69.31
2022-10-19T05:09:48.315Z,69.25
2022-10-19T05:12:16.486Z,69.38
2022-10-19T05:14:45.103Z,69.35
2022-10-19T05:17:14.378Z,69.43
2022-10-19T05:19:42.595Z,69.40
2022-10-19T05:22:13.483Z,69.45
2022-10-19T05:24:42.483Z,69.42
2022-10-19T05:27:11.445Z,69.51
2022-10-19T05:29:40.496Z,69.50
2022-10-19T05:32:09.176Z,69.46
2022-10-19T05:34:37.544Z,69.61
2022-10-19T05:37:06.141Z,69.41
2022-10-19T05:39:35.749Z,69.32
2022-10-19T05:42:03.742Z,69.17
2022-10-19T05:44:32.407Z,69.31
2022-10-19T05:47:01.168Z,69.43
2022-10-19T05:49:29.736Z,69.69
2022-10-19T05:52:00.820Z,69.75
2022-10-19T05:54:29.202Z,69.69
2022-10-19T05:56:59.186Z,69.66
2022-10-19T05:59:27.613Z,69.49
2022-10-19T06:01:56.401Z,69.62
2022-10-19T06:04:24.673Z,69.60
2022-10-19T06:06:52.857Z,69.65
2022-10-19T06:09:21.243Z,70.02
2022-10-19T06:11:49.489Z,69.84
2022-10-19T06:14:19.300Z,69.68
2022-10-19T06:16:47.410Z,69.64
2022-10-19T06:19:15.556Z,69.79
2022-10-19T06:21:45.902Z,69.75
2022-10-19T06:24:14.239Z,69.87
2022-10-19T06:26:42.560Z,69.90
2022-10-19T06:29:11.944Z,70.13
2022-10-19T06:31:42.085Z,70.10
2022-10-19T06:34:10.218Z,69.95
2022-10-19T06:36:38.793Z,70.24
2022-10-19T06:39:08.237Z,70.10
2022-10-19T06:41:36.423Z,70.16
2022-10-19T06:44:04.464Z,70.12
2022-10-19T06:46:34.089Z,70.31
2022-10-19T06:49:04.130Z,70.24
2022-10-19T06:54:17.603Z,70.42
2022-10-19T06:56:45.819Z,70.20
2022-10-19T06:59:14.943Z,70.36
2022-10-19T07:01:43.218Z,70.21
2022-10-19T07:04:13.332Z,70.11
2022-10-19T07:06:41.565Z,70.11
2022-10-19T07:09:10.152Z,70.14
2022-10-19T07:11:42.396Z,70.34
2022-10-19T07:14:14.276Z,70.05
2022-10-19T07:16:42.746Z,70.09
2022-10-19T07:19:13.845Z,70.30
2022-10-19T07:21:44.290Z,70.40
2022-10-19T07:24:12.363Z,70.35
2022-10-19T07:26:40.357Z,70.50
2022-10-19T07:29:08.900Z,70.73
2022-10-19T07:31:37.173Z,70.49
2022-10-19T07:34:06.042Z,70.60
2022-10-19T07:36:37.489Z,70.54
2022-10-19T07:39:06.866Z,70.54
2022-10-19T07:41:35.675Z,70.40
2022-10-19T07:44:04.803Z,70.85
2022-10-19T07:46:34.227Z,70.79
2022-10-19T07:49:02.780Z,70.79
2022-10-19T07:51:31.128Z,70.71
2022-10-19T07:54:00.988Z,71.11
2022-10-19T07:56:29.686Z,70.92
2022-10-19T07:58:58.405Z,70.89
2022-10-19T08:01:27.713Z,71.09
2022-10-19T08:04:43.286Z,71.09
2022-10-19T08:06:45.707Z,71.05
2022-10-19T08:09:40.107Z,71.05
2022-10-19T08:12:05.278Z,71.28
2022-10-19T08:14:33.991Z,71.24
2022-10-19T08:17:02.153Z,71.18
2022-10-19T08:19:30.312Z,71.49
2022-10-19T08:21:58.985Z,71.97
2022-10-19T08:24:29.840Z,72.23
2022-10-19T08:26:59.028Z,72.42
2022-10-19T08:29:30.579Z,72.39
2022-10-19T08:31:59.794Z,72.53
2022-10-19T08:34:28.490Z,72.62
2022-10-19T08:36:57.413Z,72.66
2022-10-19T08:39:25.852Z,72.57
2022-10-19T08:42:01.110Z,72.53
2022-10-19T08:44:36.447Z,72.53
2022-10-19T08:47:07.722Z,72.46
2022-10-19T08:49:36.892Z,72.27
2022-10-19T08:52:07.688Z,72.06
2022-10-19T08:54:42.593Z,71.67
2022-10-19T08:57:17.953Z,71.51
2022-10-19T08:59:51.472Z,71.64
2022-10-19T09:02:24.677Z,71.57
2022-10-19T09:04:58.030Z,71.54
2022-10-19T09:07:28.397Z,71.56
2022-10-19T09:09:58.471Z,71.25
2022-10-19T09:12:33.843Z,71.28
2022-10-19T09:15:04.154Z,71.25
2022-10-19T09:17:32.977Z,71.35
2022-10-19T09:20:04.164Z,71.21
2022-10-19T09:22:34.696Z,70.83
2022-10-19T09:25:04.670Z,71.13
2022-10-19T09:27:38.146Z,71.20
2022-10-19T09:30:07.465Z,71.04
2022-10-19T09:32:38.117Z,71.04
2022-10-19T09:35:08.154Z,70.93
2022-10-19T09:37:42.140Z,70.88
2022-10-19T09:40:16.580Z,70.68
2022-10-19T09:42:46.449Z,70.74
2022-10-19T09:45:18.520Z,70.56
2022-10-19T09:47:49.463Z,70.57
2022-10-19T09:50:20.113Z,70.76
2022-10-19T09:52:49.060Z,70.65
2022-10-19T09:55:21.622Z,70.59
2022-10-19T09:57:52.494Z,70.51
2022-10-19T10:00:21.141Z,70.50
2022-10-19T10:02:52.903Z,70.46
2022-10-19T10:05:21.424Z,70.15
2022-10-19T10:07:50.493Z,70.08
2022-10-19T10:10:23.726Z,70.44
2022-10-19T10:12:57.025Z,71.46
2022-10-19T10:15:27.676Z,71.85
2022-10-19T10:17:57.482Z,72.78
2022-10-19T10:20:29.071Z,74.21
2022-10-19T10:22:59.191Z,75.32
2022-10-19T10:25:32.416Z,76.17
2022-10-19T10:28:19.299Z,76.57
2022-10-19T10:30:48.866Z,77.23
2022-10-19T10:33:27.058Z,77.48
2022-10-19T10:36:06.828Z,77.79
2022-10-19T10:38:37.012Z,78.62
2022-10-19T10:41:09.319Z,79.12
2022-10-19T10:46:34.151Z,78.71
2022-10-19T10:49:04.467Z,79.21
2022-10-19T10:51:35.156Z,79.63
2022-10-19T10:54:21.324Z,80.03
2022-10-19T10:57:06.996Z,80.08
2022-10-19T10:59:43.065Z,79.93
2022-10-19T11:02:19.547Z,80.00
2022-10-19T11:04:52.354Z,79.69
2022-10-19T11:07:23.999Z,79.80
2022-10-19T11:09:54.382Z,79.84
2022-10-19T11:12:34.293Z,79.80
2022-10-19T11:15:13.540Z,80.04
2022-10-19T11:17:49.500Z,79.52
2022-10-19T11:20:18.074Z,79.57
2022-10-19T11:22:48.377Z,79.59
2022-10-19T11:25:26.086Z,79.64
2022-10-19T11:28:00.935Z,79.89
2022-10-19T11:30:32.324Z,79.88
2022-10-19T11:33:03.236Z,79.78
2022-10-19T11:35:38.629Z,79.52
2022-10-19T11:38:22.702Z,79.80
2022-10-19T11:41:17.262Z,79.52
2022-10-19T11:43:56.013Z,78.71
2022-10-19T11:46:30.528Z,77.53
2022-10-19T11:49:10.295Z,77.83
2022-10-19T11:51:41.075Z,77.48
2022-10-19T11:54:21.748Z,78.25
2022-10-19T11:57:03.182Z,78.26
2022-10-19T11:59:43.155Z,78.80
2022-10-19T12:02:24.076Z,79.04
2022-10-19T12:04:55.753Z,78.99
2022-10-19T12:07:50.956Z,79.32
2022-10-19T12:10:23.410Z,79.08
2022-10-19T12:12:54.808Z,79.11
2022-10-19T12:15:28.535Z,78.52
2022-10-19T12:18:00.720Z,78.61
2022-10-19T12:20:31.827Z,79.22
2022-10-19T12:23:00.789Z,79.19
2022-10-19T12:25:29.476Z,79.52
2022-10-19T12:27:58.820Z,79.61
2022-10-19T12:30:27.170Z,79.79
2022-10-19T12:33:08.190Z,79.66
2022-10-19T12:35:50.596Z,79.68
2022-10-19T12:38:21.853Z,79.50
2022-10-19T12:40:55.420Z,79.47
2022-10-19T12:43:28.918Z,79.72
2022-10-19T12:46:04.090Z,79.83
2022-10-19T12:48:36.602Z,79.63
2022-10-19T12:51:15.577Z,79.54
2022-10-19T12:53:47.266Z,79.78
2022-10-19T12:56:19.021Z,79.91
2022-10-19T12:58:50.597Z,79.89
2022-10-19T13:01:20.828Z,79.84
2022-10-19T13:03:52.921Z,79.60
2022-10-19T13:06:32.516Z,79.56
2022-10-19T13:09:02.047Z,79.83
2022-10-19T13:11:30.621Z,79.69
2022-10-19T13:14:02.891Z,79.25
2022-10-19T13:16:35.037Z,79.46
2022-10-19T13:19:05.427Z,79.56
2022-10-19T13:21:46.610Z,79.59
2022-10-19T13:24:28.617Z,79.68
2022-10-19T13:27:25.468Z,79.73
2022-10-19T13:29:54.998Z,79.68
2022-10-19T13:32:34.426Z,79.70
2022-10-19T13:35:17.666Z,79.40
2022-10-19T13:37:47.546Z,79.60
2022-10-19T13:40:24.528Z,79.44
2022-10-19T13:42:59.778Z,79.34
2022-10-19T13:45:28.807Z,79.23
2022-10-19T13:48:00.393Z,79.12
2022-10-19T13:50:34.447Z,79.15
2022-10-19T13:53:16.216Z,78.99
2022-10-19T13:55:51.858Z,78.76
2022-10-19T13:58:41.961Z,78.53
2022-10-19T14:01:19.174Z,78.72
2022-10-19T14:03:58.174Z,78.60
2022-10-19T14:06:33.261Z,78.23
2022-10-19T14:09:19.736Z,78.16
2022-10-19T14:11:51.937Z,78.26
2022-10-19T14:14:21.259Z,78.17
2022-10-19T14:16:51.893Z,77.80
2022-10-19T14:19:27.033Z,77.73
2022-10-19T14:21:57.030Z,77.64
2022-10-19T14:24:30.330Z,77.31
2022-10-19T14:27:05.389Z,77.36
2022-10-19T14:29:45.056Z,77.65
2022-10-19T14:32:14.433Z,77.44
2022-10-19T14:34:42.833Z,77.62
2022-10-19T14:37:15.065Z,77.62
2022-10-19T14:39:44.058Z,77.58
2022-10-19T14:42:14.540Z,77.49
2022-10-19T14:44:43.462Z,77.50
2022-10-19T14:47:21.210Z,77.58
2022-10-19T14:49:50.355Z,77.34
2022-10-19T14:52:22.923Z,77.01
2022-10-19T14:54:57.571Z,76.80
2022-10-19T14:57:30.881Z,76.92
2022-10-19T15:00:02.288Z,76.70
2022-10-19T15:02:41.438Z,76.93
2022-10-19T15:05:19.083Z,76.73
2022-10-19T15:07:48.275Z,76.54
2022-10-19T15:10:21.626Z,75.39
2022-10-19T15:12:57.579Z,76.43
2022-10-19T15:15:27.828Z,76.23
2022-10-19T15:17:57.332Z,76.29
2022-10-19T15:20:27.729Z,76.17
2022-10-19T15:22:56.571Z,76.23
2022-10-19T15:25:26.740Z,76.27
2022-10-19T15:27:58.314Z,76.31
2022-10-19T15:30:29.023Z,76.09
2022-10-19T15:33:09.338Z,76.15
2022-10-19T15:35:38.294Z,76.23
2022-10-19T15:38:10.274Z,76.05
2022-10-19T15:40:39.488Z,76.14
2022-10-19T15:43:40.746Z,75.96
2022-10-19T15:46:22.560Z,76.18
2022-10-19T15:48:55.233Z,76.12
2022-10-19T15:51:35.127Z,76.17
2022-10-19T15:54:05.169Z,75.89
2022-10-19T15:56:35.182Z,76.03
2022-10-19T15:59:05.037Z,75.77
2022-10-19T16:01:35.434Z,75.51
2022-10-19T16:04:03.610Z,75.78
2022-10-19T16:06:32.981Z,75.67
2022-10-19T16:09:01.254Z,75.91
2022-10-19T16:11:30.204Z,75.90
2022-10-19T16:13:58.788Z,75.81
2022-10-19T16:16:29.764Z,76.06
2022-10-19T16:19:00.853Z,75.51
2022-10-19T16:21:31.145Z,76.26
2022-10-19T16:24:01.684Z,75.89
2022-10-19T16:26:32.261Z,76.09
2022-10-19T16:29:01.769Z,75.74
2022-10-19T16:31:31.758Z,75.93
2022-10-19T16:34:01.622Z,75.52
2022-10-19T16:36:29.777Z,75.75
2022-10-19T16:38:58.037Z,75.85
2022-10-19T16:41:26.461Z,75.62
2022-10-19T16:43:58.272Z,75.27
2022-10-19T16:46:27.265Z,75.26
2022-10-19T16:48:55.426Z,75.36
2022-10-19T16:51:36.870Z,75.10
2022-10-19T16:54:06.536Z,74.79
2022-10-19T16:56:35.963Z,75.18
2022-10-19T16:59:05.182Z,75.08
2022-10-19T17:01:34.254Z,74.75
2022-10-19T17:04:02.507Z,74.97
2022-10-19T17:06:31.164Z,75.14
2022-10-19T17:09:30.163Z,75.07
2022-10-19T17:11:50.102Z,75.34
2022-10-19T17:14:18.709Z,75.47
2022-10-19T17:16:47.133Z,75.79
2022-10-19T17:19:15.360Z,75.77
2022-10-19T17:21:43.454Z,76.18
2022-10-19T17:24:21.007Z,76.05
2022-10-19T17:26:50.457Z,75.89
2022-10-19T17:29:18.722Z,75.94
2022-10-19T17:31:47.343Z,76.07
2022-10-19T17:34:15.389Z,76.18
2022-10-19T17:36:45.112Z,76.05
2022-10-19T17:39:17.983Z,76.12
2022-10-19T17:41:46.869Z,76.21
2022-10-19T17:44:15.097Z,76.23
2022-10-19T17:46:43.163Z,76.19
2022-10-19T17:49:11.814Z,76.03
2022-10-19T17:51:40.483Z,75.92
2022-10-19T17:54:09.866Z,75.79
2022-10-19T17:56:40.084Z,75.89
2022-10-19T17:59:09.455Z,75.80
2022-10-19T18:01:38.627Z,75.54
2022-10-19T18:04:07.791Z,75.77
2022-10-19T18:06:36.849Z,75.60
2022-10-19T18:09:06.313Z,75.55
2022-10-19T18:11:37.402Z,75.57
2022-10-19T18:14:09.659Z,75.29
2022-10-19T18:16:39.260Z,75.19
2022-10-19T18:19:09.261Z,74.97
2022-10-19T18:21:39.981Z,74.98
2022-10-19T18:24:12.711Z,74.70
2022-10-19T18:26:44.234Z,74.70
2022-10-19T18:29:16.702Z,75.03
2022-10-19T18:31:51.896Z,74.78
2022-10-19T18:34:21.550Z,74.77
2022-10-19T18:36:50.234Z,74.63
2022-10-19T18:39:19.043Z,74.70
2022-10-19T18:41:50.033Z,74.80
2022-10-19T18:44:26.946Z,74.57
2022-10-19T18:46:57.235Z,74.25
2022-10-19T18:49:26.881Z,74.70
2022-10-19T18:51:56.082Z,74.55
2022-10-19T18:54:24.738Z,74.42
2022-10-19T18:56:53.427Z,74.32
2022-10-19T18:59:24.175Z,74.68
2022-10-19T19:01:53.819Z,74.58
2022-10-19T19:04:22.798Z,74.54
2022-10-19T19:06:51.341Z,74.52
2022-10-19T19:09:19.759Z,74.48
2022-10-19T19:11:49.063Z,74.64
2022-10-19T19:14:18.336Z,74.45
2022-10-19T19:16:51.992Z,74.25
2022-10-19T19:19:20.981Z,74.33
2022-10-19T19:21:50.063Z,74.01
2022-10-19T19:24:20.210Z,74.34
2022-10-19T19:26:51.158Z,74.53
2022-10-19T19:29:20.150Z,74.59
2022-10-19T19:31:50.285Z,74.52
2022-10-19T19:34:19.123Z,74.83
2022-10-19T19:36:48.802Z,74.65
2022-10-19T19:39:24.494Z,74.97
2022-10-19T19:41:55.709Z,75.04
2022-10-19T19:44:25.206Z,74.69
2022-10-19T19:46:54.821Z,74.91
2022-10-19T19:49:24.727Z,74.79
2022-10-19T19:51:53.904Z,74.63
2022-10-19T19:54:25.427Z,74.86
2022-10-19T19:56:55.387Z,74.64
2022-10-19T19:59:24.809Z,74.56
2022-10-19T20:01:54.969Z,74.39
2022-10-19T20:04:25.055Z,74.31
2022-10-19T20:06:53.853Z,74.34
2022-10-19T20:09:22.382Z,74.22
2022-10-19T20:11:51.164Z,74.20
2022-10-19T20:14:20.113Z,74.23
2022-10-19T20:16:48.684Z,74.24
2022-10-19T20:19:22.770Z,74.18
2022-10-19T20:21:51.674Z,74.13
2022-10-19T20:24:20.129Z,73.91
2022-10-19T20:26:48.238Z,74.13
2022-10-19T20:29:16.813Z,74.00
2022-10-19T20:31:44.789Z,74.03
2022-10-19T20:34:14.331Z,73.51
2022-10-19T20:36:44.291Z,73.53
2022-10-19T20:39:12.904Z,73.22
2022-10-19T20:41:41.147Z,72.99
2022-10-19T20:44:10.022Z,72.89
2022-10-19T20:46:38.100Z,73.00
2022-10-19T20:49:07.740Z,72.84
2022-10-19T20:51:37.056Z,72.72
2022-10-19T20:54:07.923Z,72.64
2022-10-19T20:56:37.409Z,72.61
2022-10-19T20:59:08.181Z,72.59
2022-10-19T21:01:38.383Z,72.67
2022-10-19T21:04:07.909Z,72.17
2022-10-19T21:06:41.257Z,72.51
2022-10-19T21:09:12.143Z,72.35
2022-10-19T21:11:40.979Z,72.21
2022-10-19T21:14:12.032Z,72.30
2022-10-19T21:16:40.292Z,72.25
2022-10-19T21:19:10.347Z,72.31
2022-10-19T21:21:39.191Z,72.18
2022-10-19T21:24:09.136Z,72.15
2022-10-19T21:26:39.350Z,72.18
2022-10-19T21:29:10.302Z,72.17
2022-10-19T21:31:39.546Z,71.72
2022-10-19T21:34:10.509Z,71.85
2022-10-19T21:36:39.308Z,72.00
2022-10-19T21:39:07.592Z,71.77
2022-10-19T21:41:40.290Z,71.57
2022-10-19T21:44:11.439Z,71.60
2022-10-19T21:46:39.949Z,71.50
2022-10-19T21:49:08.181Z,71.20
2022-10-19T21:51:38.848Z,71.58
2022-10-19T21:54:09.087Z,71.23
2022-10-19T21:56:38.434Z,71.20
2022-10-19T21:59:08.110Z,71.44
2022-10-19T22:01:40.205Z,71.58
2022-10-19T22:04:10.576Z,71.23
2022-10-19T22:06:38.939Z,71.27
2022-10-19T22:09:08.494Z,71.30
2022-10-19T22:11:37.086Z,71.12
2022-10-19T22:14:05.499Z,70.96
2022-10-19T22:16:37.156Z,71.01
2022-10-19T22:19:06.501Z,71.00
2022-10-19T22:21:35.791Z,71.00
2022-10-19T22:24:05.089Z,70.79
2022-10-19T22:26:34.600Z,70.93
2022-10-19T22:29:03.026Z,70.78
2022-10-19T22:31:32.021Z,70.56
2022-10-19T22:34:03.151Z,70.60
2022-10-19T22:39:30.802Z,70.75
2022-10-19T22:41:59.555Z,70.45
2022-10-19T22:44:28.204Z,70.47
2022-10-19T22:46:57.277Z,70.68
2022-10-19T22:49:26.852Z,70.64
2022-10-19T22:52:02.964Z,70.58
2022-10-19T22:54:31.012Z,70.48
2022-10-19T22:59:50.291Z,70.39
2022-10-19T23:02:18.995Z,70.37
2022-10-19T23:04:48.687Z,70.50
2022-10-19T23:07:17.063Z,70.41
2022-10-19T23:09:45.975Z,70.32
2022-10-19T23:12:14.138Z,69.99
2022-10-19T23:14:43.114Z,69.74
2022-10-19T23:17:12.048Z,69.81
2022-10-19T23:19:40.341Z,69.57
2022-10-19T23:22:10.619Z,69.57
2022-10-19T23:24:39.336Z,69.29
2022-10-19T23:27:08.466Z,69.49
2022-10-19T23:29:36.855Z,68.83
2022-10-19T23:32:05.390Z,68.73
2022-10-19T23:34:36.426Z,69.21
2022-10-19T23:37:04.857Z,68.84
2022-10-19T23:39:35.579Z,68.84
2022-10-19T23:42:05.121Z,68.93
2022-10-19T23:44:33.688Z,68.61
2022-10-19T23:47:02.133Z,68.45
2022-10-19T23:49:31.687Z,68.35
2022-10-19T23:52:01.803Z,68.28
2022-10-19T23:54:30.128Z,67.92
2022-10-19T23:57:01.563Z,67.93
2022-10-19T23:59:30.089Z,67.75
